createdAt,value
2022-08-18T00:01:18.971Z,25.14
2022-08-18T00:03:56.295Z,25.15
2022-08-18T00:06:31.177Z,25.18
2022-08-18T00:09:03.413Z,25.19
2022-08-18T00:11:41.123Z,25.14
2022-08-18T00:14:22.578Z,25.10
2022-08-18T00:16:55.386Z,25.10
2022-08-18T00:19:45.561Z,25.07
2022-08-18T00:22:20.104Z,25.06
2022-08-18T00:24:52.363Z,25.02
2022-08-18T00:27:28.070Z,24.98
2022-08-18T00:30:01.271Z,24.95
2022-08-18T00:32:34.122Z,24.89
2022-08-18T00:35:08.973Z,24.84
2022-08-18T00:37:40.091Z,24.77
2022-08-18T00:40:13.542Z,24.69
2022-08-18T00:42:45.908Z,24.67
2022-08-18T00:45:19.555Z,24.61
2022-08-18T00:47:50.902Z,24.59
2022-08-18T00:50:23.695Z,24.50
2022-08-18T00:52:58.083Z,24.45
2022-08-18T00:55:31.140Z,24.43
2022-08-18T00:58:05.267Z,24.38
2022-08-18T01:00:38.202Z,24.34
2022-08-18T01:03:14.415Z,24.33
2022-08-18T01:05:47.711Z,24.28
2022-08-18T01:08:29.201Z,24.27
2022-08-18T01:11:03.021Z,24.26
2022-08-18T01:13:34.596Z,24.21
2022-08-18T01:16:26.478Z,24.22
2022-08-18T01:19:14.747Z,24.26
2022-08-18T01:21:54.015Z,24.31
2022-08-18T01:24:47.167Z,24.36
2022-08-18T01:27:19.358Z,24.38
2022-08-18T01:29:51.286Z,24.44
2022-08-18T01:32:23.766Z,24.41
2022-08-18T01:34:55.307Z,24.40
2022-08-18T01:37:26.633Z,24.40
2022-08-18T01:41:24.886Z,24.37
2022-08-18T01:42:48.989Z,24.33
2022-08-18T01:45:21.706Z,24.34
2022-08-18T01:47:52.866Z,24.25
2022-08-18T01:50:24.126Z,24.18
2022-08-18T01:52:55.541Z,24.13
2022-08-18T01:55:28.757Z,24.08
2022-08-18T01:58:01.856Z,24.03
2022-08-18T02:00:33.351Z,23.97
2022-08-18T02:03:08.754Z,23.93
2022-08-18T02:05:41.308Z,23.91
2022-08-18T02:08:15.753Z,23.86
2022-08-18T02:10:47.117Z,23.78
2022-08-18T02:13:18.633Z,23.75
2022-08-18T02:15:49.816Z,23.70
2022-08-18T02:18:41.524Z,23.70
2022-08-18T02:21:14.325Z,23.68
2022-08-18T02:23:53.967Z,23.66
2022-08-18T02:26:25.541Z,23.62
2022-08-18T02:28:57.079Z,23.61
2022-08-18T02:31:28.422Z,23.63
2022-08-18T02:33:59.835Z,23.66
2022-08-18T02:36:30.990Z,23.71
2022-08-18T02:39:02.156Z,23.75
2022-08-18T02:41:33.448Z,23.79
2022-08-18T02:44:05.250Z,23.78
2022-08-18T02:46:36.725Z,23.81
2022-08-18T02:49:08.405Z,23.75
2022-08-18T02:51:39.750Z,23.71
2022-08-18T02:54:11.881Z,23.73
2022-08-18T02:56:45.945Z,23.69
2022-08-18T02:59:18.393Z,23.67
2022-08-18T03:01:50.550Z,23.63
2022-08-18T03:04:28.681Z,23.61
2022-08-18T03:07:01.956Z,23.58
2022-08-18T03:09:34.732Z,23.55
2022-08-18T03:12:07.802Z,23.49
2022-08-18T03:14:40.301Z,23.49
2022-08-18T03:17:11.843Z,23.47
2022-08-18T03:19:46.768Z,23.44
2022-08-18T03:22:28.737Z,23.36
2022-08-18T03:25:02.261Z,23.34
2022-08-18T03:27:33.755Z,23.34
2022-08-18T03:30:05.850Z,23.31
2022-08-18T03:32:45.616Z,23.28
2022-08-18T03:35:17.592Z,23.24
2022-08-18T03:37:48.781Z,23.26
2022-08-18T03:40:20.183Z,23.28
2022-08-18T03:42:51.524Z,23.32
2022-08-18T03:45:23.569Z,23.35
2022-08-18T03:47:54.826Z,23.46
2022-08-18T03:50:26.662Z,23.52
2022-08-18T03:52:59.800Z,23.59
2022-08-18T03:55:31.055Z,23.64
2022-08-18T03:58:03.745Z,23.62
2022-08-18T04:00:35.024Z,23.65
2022-08-18T04:03:06.354Z,23.63
2022-08-18T04:05:40.594Z,23.63
2022-08-18T04:08:13.702Z,23.60
2022-08-18T04:10:47.155Z,23.58
2022-08-18T04:13:18.485Z,23.56
2022-08-18T04:15:49.723Z,23.56
2022-08-18T04:18:20.896Z,23.59
2022-08-18T04:20:59.861Z,23.59
2022-08-18T04:23:31.864Z,23.61
2022-08-18T04:26:19.131Z,23.58
2022-08-18T04:28:50.555Z,23.62
2022-08-18T04:31:24.726Z,23.61
2022-08-18T04:33:57.237Z,23.64
2022-08-18T04:36:28.822Z,23.64
2022-08-18T04:39:00.305Z,23.68
2022-08-18T04:41:31.596Z,23.73
2022-08-18T04:44:03.870Z,23.80
2022-08-18T04:46:36.894Z,23.91
2022-08-18T04:49:09.562Z,23.96
2022-08-18T04:52:36.966Z,24.00
2022-08-18T04:54:38.486Z,24.09
2022-08-18T04:57:10.814Z,24.16
2022-08-18T04:59:46.021Z,24.28
2022-08-18T05:02:18.835Z,24.39
2022-08-18T05:04:50.254Z,24.53
2022-08-18T05:07:23.051Z,24.63
2022-08-18T05:09:55.419Z,24.81
2022-08-18T05:12:27.117Z,24.97
2022-08-18T05:14:58.369Z,25.66
2022-08-18T05:17:31.082Z,26.18
2022-08-18T05:20:04.119Z,26.24
2022-08-18T05:22:41.055Z,26.23
2022-08-18T05:25:13.855Z,26.90
2022-08-18T05:27:45.522Z,28.03
2022-08-18T05:30:17.087Z,29.37
2022-08-18T05:32:50.508Z,30.63
2022-08-18T05:35:24.820Z,31.56
2022-08-18T05:38:09.381Z,32.15
2022-08-18T05:40:40.428Z,32.48
2022-08-18T05:43:12.960Z,32.77
2022-08-18T05:45:44.733Z,33.34
2022-08-18T05:48:17.414Z,33.86
2022-08-18T05:50:49.061Z,34.44
2022-08-18T05:53:40.560Z,35.25
2022-08-18T05:56:30.640Z,35.83
2022-08-18T05:59:02.533Z,36.06
2022-08-18T06:01:38.599Z,35.27
2022-08-18T06:04:13.665Z,34.26
2022-08-18T06:06:47.917Z,33.50
2022-08-18T06:09:23.314Z,32.81
2022-08-18T06:11:55.858Z,32.21
2022-08-18T06:14:27.381Z,31.86
2022-08-18T06:17:02.743Z,31.55
2022-08-18T06:19:41.762Z,31.29
2022-08-18T06:22:19.288Z,31.03
2022-08-18T06:24:53.069Z,30.81
2022-08-18T06:27:31.467Z,30.57
2022-08-18T06:30:09.126Z,30.63
2022-08-18T06:32:53.300Z,30.62
2022-08-18T06:35:30.706Z,31.03
2022-08-18T06:38:24.189Z,32.82
2022-08-18T06:41:02.353Z,35.19
2022-08-18T06:43:35.623Z,36.85
2022-08-18T06:46:10.533Z,38.05
2022-08-18T06:48:46.127Z,39.37
2022-08-18T06:51:20.134Z,40.64
2022-08-18T06:53:56.418Z,41.91
2022-08-18T06:56:30.026Z,42.57
2022-08-18T06:59:14.994Z,43.42
2022-08-18T07:01:47.937Z,44.19
2022-08-18T07:04:38.435Z,44.93
2022-08-18T07:07:20.831Z,45.19
2022-08-18T07:09:52.099Z,44.68
2022-08-18T07:12:30.483Z,44.24
2022-08-18T07:15:06.114Z,43.75
2022-08-18T07:17:52.870Z,43.82
2022-08-18T07:20:25.671Z,44.18
2022-08-18T07:23:00.017Z,44.14
2022-08-18T07:25:33.586Z,44.16
2022-08-18T07:28:04.739Z,44.39
2022-08-18T07:30:37.584Z,44.60
2022-08-18T07:33:12.953Z,43.89
2022-08-18T07:35:46.961Z,42.75
2022-08-18T07:41:16.226Z,43.06
2022-08-18T07:43:54.398Z,43.87
2022-08-18T07:46:33.483Z,43.90
2022-08-18T07:49:06.757Z,43.96
2022-08-18T07:51:45.664Z,43.23
2022-08-18T07:54:47.603Z,41.75
2022-08-18T07:57:20.081Z,40.61
2022-08-18T07:59:55.619Z,39.66
2022-08-18T08:02:34.316Z,38.81
2022-08-18T08:05:11.596Z,37.89
2022-08-18T08:07:47.605Z,36.97
2022-08-18T08:10:28.978Z,36.06
2022-08-18T08:13:09.846Z,35.56
2022-08-18T08:15:49.145Z,35.31
2022-08-18T08:18:26.424Z,34.83
2022-08-18T08:20:58.962Z,34.54
2022-08-18T08:23:32.327Z,34.20
2022-08-18T08:26:13.769Z,33.91
2022-08-18T08:28:55.238Z,33.78
2022-08-18T08:31:37.240Z,33.50
2022-08-18T08:34:12.646Z,33.57
2022-08-18T08:36:46.326Z,33.66
2022-08-18T08:39:20.248Z,33.96
2022-08-18T08:41:57.590Z,34.36
2022-08-18T08:44:59.105Z,33.96
2022-08-18T08:47:34.207Z,33.82
2022-08-18T08:50:08.370Z,33.89
2022-08-18T08:52:42.121Z,33.94
2022-08-18T08:55:17.775Z,33.97
2022-08-18T08:57:51.653Z,33.72
2022-08-18T09:00:23.288Z,33.16
2022-08-18T09:03:02.647Z,32.97
2022-08-18T09:05:37.652Z,33.02
2022-08-18T09:08:15.984Z,33.02
2022-08-18T09:11:09.434Z,33.09
2022-08-18T09:13:53.841Z,33.04
2022-08-18T09:16:35.758Z,32.86
2022-08-18T09:19:19.134Z,33.01
2022-08-18T09:21:54.127Z,33.04
2022-08-18T09:24:27.554Z,32.83
2022-08-18T09:27:14.032Z,32.81
2022-08-18T09:29:52.881Z,32.79
2022-08-18T09:32:40.530Z,32.72
2022-08-18T09:35:26.612Z,32.61
2022-08-18T09:38:20.577Z,32.58
2022-08-18T09:41:10.693Z,32.50
2022-08-18T09:43:56.222Z,32.32
2022-08-18T09:46:40.882Z,32.14
2022-08-18T09:49:28.363Z,31.96
2022-08-18T09:52:02.358Z,31.81
2022-08-18T09:54:35.177Z,31.69
2022-08-18T09:57:20.810Z,31.71
2022-08-18T09:59:57.098Z,32.07
2022-08-18T10:02:48.588Z,32.17
2022-08-18T10:05:29.751Z,32.00
2022-08-18T10:08:15.007Z,32.13
2022-08-18T10:11:01.202Z,32.14
2022-08-18T10:17:13.104Z,31.82
2022-08-18T10:19:43.382Z,31.79
2022-08-18T10:22:36.141Z,31.77
2022-08-18T10:25:22.190Z,31.77
2022-08-18T10:27:56.943Z,31.81
2022-08-18T10:30:56.883Z,31.89
2022-08-18T10:33:45.500Z,31.74
2022-08-18T10:36:34.097Z,31.67
2022-08-18T10:39:08.028Z,31.56
2022-08-18T10:44:33.000Z,31.36
2022-08-18T10:47:12.018Z,31.34
2022-08-18T10:49:49.523Z,31.26
2022-08-18T10:52:35.286Z,31.34
2022-08-18T10:55:24.736Z,31.43
2022-08-18T10:58:24.017Z,31.55
2022-08-18T11:01:07.800Z,31.55
2022-08-18T11:04:13.850Z,31.50
2022-08-18T11:06:49.298Z,31.56
2022-08-18T11:09:27.397Z,31.72
2022-08-18T11:12:01.713Z,32.07
2022-08-18T11:14:52.840Z,33.36
2022-08-18T11:17:31.826Z,34.22
2022-08-18T11:20:04.318Z,34.31
2022-08-18T11:22:36.477Z,34.33
2022-08-18T11:25:22.578Z,34.21
2022-08-18T11:27:53.899Z,34.11
2022-08-18T11:30:30.715Z,33.98
2022-08-18T11:33:03.568Z,33.75
2022-08-18T11:35:36.828Z,34.07
2022-08-18T11:38:21.096Z,34.57
2022-08-18T11:41:13.036Z,34.42
2022-08-18T11:46:41.101Z,33.61
2022-08-18T11:49:24.118Z,33.21
2022-08-18T11:52:29.489Z,32.82
2022-08-18T11:55:14.555Z,32.61
2022-08-18T11:57:58.835Z,32.49
2022-08-18T12:00:42.589Z,32.43
2022-08-18T12:03:21.203Z,32.37
2022-08-18T12:05:56.351Z,32.26
2022-08-18T12:08:56.139Z,32.15
2022-08-18T12:11:27.069Z,31.87
2022-08-18T12:14:30.322Z,31.76
2022-08-18T12:16:55.156Z,31.88
2022-08-18T12:19:28.564Z,32.01
2022-08-18T12:22:01.970Z,32.22
2022-08-18T12:24:39.231Z,32.72
2022-08-18T12:27:20.713Z,33.19
2022-08-18T12:29:53.843Z,33.43
2022-08-18T12:32:56.145Z,33.24
2022-08-18T12:35:21.694Z,33.08
2022-08-18T12:37:59.727Z,32.88
2022-08-18T12:40:34.760Z,32.92
2022-08-18T12:43:06.052Z,32.97
2022-08-18T12:45:38.196Z,32.95
2022-08-18T12:48:10.871Z,32.93
2022-08-18T12:53:38.065Z,32.90
2022-08-18T12:56:26.547Z,33.34
2022-08-18T12:58:59.738Z,34.30
2022-08-18T13:01:31.032Z,34.90
2022-08-18T13:04:11.088Z,35.12
2022-08-18T13:06:59.303Z,34.88
2022-08-18T13:09:34.185Z,34.47
2022-08-18T13:12:16.149Z,33.92
2022-08-18T13:14:48.220Z,33.62
2022-08-18T13:17:30.075Z,33.24
2022-08-18T13:20:08.713Z,32.89
2022-08-18T13:22:41.291Z,32.64
2022-08-18T13:25:33.202Z,32.50
2022-08-18T13:28:05.959Z,32.42
2022-08-18T13:30:37.321Z,32.34
2022-08-18T13:33:35.158Z,32.28
2022-08-18T13:36:01.432Z,32.30
2022-08-18T13:38:33.060Z,32.28
2022-08-18T13:41:08.702Z,32.27
2022-08-18T13:43:47.880Z,32.19
2022-08-18T13:46:30.112Z,32.24
2022-08-18T13:49:03.294Z,32.22
2022-08-18T13:51:34.728Z,32.25
2022-08-18T13:54:27.005Z,32.25
2022-08-18T13:56:58.074Z,32.24
2022-08-18T13:59:31.947Z,32.15
2022-08-18T14:02:03.831Z,32.11
2022-08-18T14:04:36.556Z,32.13
2022-08-18T14:07:11.722Z,32.17
2022-08-18T14:09:43.717Z,32.14
2022-08-18T14:12:22.394Z,32.11
2022-08-18T14:14:55.016Z,32.06
2022-08-18T14:17:27.014Z,31.98
2022-08-18T14:20:27.231Z,31.92
2022-08-18T14:23:21.635Z,31.97
2022-08-18T14:26:25.162Z,31.99
2022-08-18T14:28:58.121Z,31.83
2022-08-18T14:31:29.241Z,31.86
2022-08-18T14:34:05.284Z,31.90
2022-08-18T14:36:36.328Z,31.84
2022-08-18T14:39:08.466Z,31.78
2022-08-18T14:41:54.688Z,31.81
2022-08-18T14:44:32.261Z,31.79
2022-08-18T14:47:03.632Z,31.76
2022-08-18T14:49:36.474Z,31.73
2022-08-18T14:52:19.093Z,31.69
2022-08-18T14:54:51.090Z,31.74
2022-08-18T14:57:22.467Z,31.74
2022-08-18T14:59:57.228Z,31.70
2022-08-18T15:02:28.681Z,31.72
2022-08-18T15:04:59.905Z,31.69
2022-08-18T15:07:32.904Z,31.73
2022-08-18T15:10:14.795Z,31.76
2022-08-18T15:12:49.074Z,31.70
2022-08-18T15:15:22.472Z,31.62
2022-08-18T15:17:54.850Z,31.56
2022-08-18T15:20:29.593Z,31.49
2022-08-18T15:23:24.913Z,31.49
2022-08-18T15:26:00.002Z,31.44
2022-08-18T15:28:31.203Z,31.36
2022-08-18T15:31:17.808Z,31.29
2022-08-18T15:33:50.217Z,31.29
2022-08-18T15:36:29.149Z,31.31
2022-08-18T15:39:00.939Z,31.32
2022-08-18T15:41:34.747Z,31.31
2022-08-18T15:44:07.873Z,31.34
2022-08-18T15:46:39.920Z,31.37
2022-08-18T15:49:14.874Z,31.42
2022-08-18T15:51:46.743Z,31.42
2022-08-18T15:54:17.863Z,31.39
2022-08-18T15:56:57.824Z,31.35
2022-08-18T15:59:34.359Z,31.34
2022-08-18T16:02:17.989Z,31.39
2022-08-18T16:04:50.641Z,31.33
2022-08-18T16:07:25.086Z,31.35
2022-08-18T16:10:04.249Z,31.34
2022-08-18T16:12:35.345Z,31.32
2022-08-18T16:15:07.922Z,31.30
2022-08-18T16:17:39.241Z,31.24
2022-08-18T16:20:11.254Z,31.20
2022-08-18T16:22:42.739Z,31.19
2022-08-18T16:25:13.752Z,31.21
2022-08-18T16:27:45.223Z,31.19
2022-08-18T16:30:19.633Z,31.13
2022-08-18T16:32:50.986Z,31.10
2022-08-18T16:35:22.679Z,31.06
2022-08-18T16:37:53.867Z,31.04
2022-08-18T16:40:28.035Z,30.99
2022-08-18T16:43:00.354Z,30.94
2022-08-18T16:45:33.817Z,30.97
2022-08-18T16:48:08.417Z,30.91
2022-08-18T16:50:42.672Z,30.88
2022-08-18T16:53:13.678Z,30.91
2022-08-18T16:55:45.352Z,30.88
2022-08-18T16:58:33.840Z,30.84
2022-08-18T17:01:22.110Z,30.85
2022-08-18T17:04:13.600Z,30.85
2022-08-18T17:06:52.138Z,30.83
2022-08-18T17:09:24.067Z,30.80
2022-08-18T17:11:55.427Z,30.72
2022-08-18T17:14:28.030Z,30.69
2022-08-18T17:17:00.536Z,30.68
2022-08-18T17:19:33.914Z,30.67
2022-08-18T17:22:06.423Z,30.60
2022-08-18T17:24:38.026Z,30.59
2022-08-18T17:27:26.400Z,30.53
2022-08-18T17:30:03.702Z,30.52
2022-08-18T17:35:16.233Z,30.38
2022-08-18T17:37:52.525Z,30.34
2022-08-18T17:40:28.655Z,30.30
2022-08-18T17:43:00.668Z,30.25
2022-08-18T17:45:36.321Z,30.22
2022-08-18T17:48:12.082Z,30.16
2022-08-18T17:51:02.927Z,30.14
2022-08-18T17:53:36.511Z,30.11
2022-08-18T17:56:09.281Z,30.06
2022-08-18T17:58:42.467Z,30.02
2022-08-18T18:01:14.013Z,29.96
2022-08-18T18:03:45.973Z,29.90
2022-08-18T18:06:20.117Z,29.85
2022-08-18T18:08:57.417Z,29.81
2022-08-18T18:11:31.403Z,29.72
2022-08-18T18:14:24.485Z,29.66
2022-08-18T18:17:03.524Z,29.57
2022-08-18T18:19:35.285Z,29.56
2022-08-18T18:22:08.625Z,29.47
2022-08-18T18:24:40.702Z,29.45
2022-08-18T18:27:26.881Z,29.44
2022-08-18T18:29:59.658Z,29.37
2022-08-18T18:32:33.239Z,29.31
2022-08-18T18:35:09.910Z,29.30
2022-08-18T18:37:47.085Z,29.25
2022-08-18T18:40:23.595Z,29.21
2022-08-18T18:42:55.283Z,29.18
2022-08-18T18:45:28.891Z,29.11
2022-08-18T18:48:07.206Z,29.07
2022-08-18T18:50:52.867Z,29.01
2022-08-18T18:53:31.639Z,28.95
2022-08-18T18:56:12.569Z,28.94
2022-08-18T18:58:49.018Z,28.86
2022-08-18T19:01:26.278Z,28.81
2022-08-18T19:04:00.593Z,28.78
2022-08-18T19:06:32.952Z,28.76
2022-08-18T19:09:08.775Z,28.73
2022-08-18T19:11:44.153Z,28.68
2022-08-18T19:14:18.682Z,28.68
2022-08-18T19:16:52.936Z,28.72
2022-08-18T19:19:37.350Z,28.65
2022-08-18T19:22:15.955Z,28.62
2022-08-18T19:24:54.624Z,28.54
2022-08-18T19:27:30.511Z,28.50
2022-08-18T19:30:06.132Z,28.46
2022-08-18T19:32:39.708Z,28.40
2022-08-18T19:35:13.911Z,28.36
2022-08-18T19:38:05.271Z,28.35
2022-08-18T19:40:40.494Z,28.28
2022-08-18T19:43:15.964Z,28.29
2022-08-18T19:45:51.325Z,28.20
2022-08-18T19:48:27.833Z,28.16
2022-08-18T19:51:05.312Z,28.12
2022-08-18T19:53:52.823Z,28.11
2022-08-18T19:56:34.229Z,28.08
2022-08-18T19:59:19.471Z,28.05
2022-08-18T20:02:11.666Z,28.02
2022-08-18T20:04:52.517Z,27.99
2022-08-18T20:07:46.843Z,27.96
2022-08-18T20:10:27.884Z,27.94
2022-08-18T20:13:10.328Z,27.90
2022-08-18T20:15:59.060Z,27.90
2022-08-18T20:18:35.828Z,27.88
2022-08-18T20:21:36.854Z,27.82
2022-08-18T20:24:34.678Z,27.79
2022-08-18T20:27:34.165Z,27.75
2022-08-18T20:30:20.331Z,27.74
2022-08-18T20:33:05.793Z,27.71
2022-08-18T20:35:41.215Z,27.66
2022-08-18T20:38:22.667Z,27.65
2022-08-18T20:40:55.570Z,27.65
2022-08-18T20:43:28.280Z,27.63
2022-08-18T20:46:07.060Z,27.60
2022-08-18T20:48:44.177Z,27.56
2022-08-18T20:51:16.827Z,27.54
2022-08-18T20:53:59.450Z,27.50
2022-08-18T20:56:43.273Z,27.49
2022-08-18T20:59:18.785Z,27.47
2022-08-18T21:01:56.770Z,27.43
2022-08-18T21:04:42.473Z,27.42
2022-08-18T21:07:19.576Z,27.34
2022-08-18T21:10:12.282Z,27.31
2022-08-18T21:12:52.113Z,27.26
2022-08-18T21:15:25.440Z,27.24
2022-08-18T21:18:01.001Z,27.25
2022-08-18T21:20:32.651Z,27.27
2022-08-18T21:23:05.357Z,27.21
2022-08-18T21:25:36.454Z,27.24
2022-08-18T21:28:08.126Z,27.21
2022-08-18T21:30:39.955Z,27.14
2022-08-18T21:33:23.005Z,27.11
2022-08-18T21:35:54.295Z,27.10
2022-08-18T21:38:28.162Z,27.12
2022-08-18T21:41:00.541Z,27.12
2022-08-18T21:43:49.278Z,27.09
2022-08-18T21:46:28.029Z,27.05
2022-08-18T21:49:00.660Z,27.05
2022-08-18T21:51:33.275Z,27.04
2022-08-18T21:54:04.251Z,27.03
2022-08-18T21:56:36.424Z,27.01
2022-08-18T21:59:10.939Z,27.00
2022-08-18T22:01:49.640Z,27.03
2022-08-18T22:04:27.735Z,26.99
2022-08-18T22:07:00.670Z,27.00
2022-08-18T22:09:50.163Z,27.03
2022-08-18T22:12:42.238Z,27.05
2022-08-18T22:15:14.716Z,27.07
2022-08-18T22:17:59.552Z,26.99
2022-08-18T22:20:38.619Z,26.94
2022-08-18T22:23:36.241Z,26.94
2022-08-18T22:26:13.951Z,26.92
2022-08-18T22:28:49.834Z,26.87
2022-08-18T22:31:22.144Z,26.88
2022-08-18T22:33:53.997Z,26.87
2022-08-18T22:36:27.848Z,26.86
2022-08-18T22:38:58.976Z,26.84
2022-08-18T22:41:30.125Z,26.80
2022-08-18T22:44:02.628Z,26.83
2022-08-18T22:46:34.162Z,26.80
2022-08-18T22:49:05.349Z,26.78
2022-08-18T22:51:37.560Z,26.76
2022-08-18T22:54:11.322Z,26.77
2022-08-18T22:56:56.383Z,26.73
2022-08-18T22:59:29.300Z,26.71
2022-08-18T23:02:03.587Z,26.69
2022-08-18T23:04:34.876Z,26.72
2022-08-18T23:07:06.231Z,26.67
2022-08-18T23:09:37.639Z,26.67
2022-08-18T23:12:10.841Z,26.63
2022-08-18T23:14:46.376Z,26.63
2022-08-18T23:17:17.598Z,26.64
2022-08-18T23:19:48.652Z,26.63
2022-08-18T23:22:23.377Z,26.62
2022-08-18T23:24:54.658Z,26.67
2022-08-18T23:27:25.805Z,26.62
2022-08-18T23:29:57.093Z,26.59
2022-08-18T23:32:30.233Z,26.60
2022-08-18T23:35:03.379Z,26.55
2022-08-18T23:37:34.630Z,26.51
2022-08-18T23:40:06.619Z,26.47
2022-08-18T23:42:37.846Z,26.43
2022-08-18T23:45:10.179Z,26.46
2022-08-18T23:47:41.712Z,26.44
2022-08-18T23:50:13.427Z,26.41
2022-08-18T23:52:44.599Z,26.45
2022-08-18T23:55:18.800Z,26.42
2022-08-18T23:57:49.839Z,26.38
